CheckWX is a tool to help pilots better visualize weather data.  It is not intended as a substitute for an official pre-flight weather briefing.

13:13:01 UTC

KBHK METAR
Baker Municipal Airport
Baker, Montana, USA
Current

8 mins ago

KBHK 221305Z AUTO 11007KT 4SM BR FEW002 M23/M24 A3008 RMK AO2 T12331244
Observed
Feb-22 @ 13:05 UTC
Wind
  • 110° at 7 KTS
Visibility
4 SM
Flight Rules
MVFR
Conditions
Mist
Cloud Levels
  • Few at 200' AGL
Temperature
-23°C / -9°F
Dewpoint
-24°C / -11°F
Humidity
92%
Altimeter
30.08" Hg
Pressure
1018.62 hPa
Previous

22 mins ago

KBHK 221251Z AUTO 13007KT 8SM CLR M23/M25 A3007 RMK AO2 SLP260 T12331250
Observed
Feb-22 @ 12:51 UTC
Wind
  • 130° at 7 KTS
Visibility
8 SM
Flight Rules
VFR
Cloud Levels
  • Clear skies
Temperature
-23°C / -9°F
Dewpoint
-25°C / -13°F
Humidity
84%
Altimeter
30.07" Hg
Pressure
1026 hPa
Previous

53 mins ago

KBHK 221220Z AUTO 11005KT 4SM BR FEW002 M23/M24 A3008 RMK AO2 T12281244
Observed
Feb-22 @ 12:20 UTC
Wind
  • 110° at 5 KTS
Visibility
4 SM
Flight Rules
MVFR
Conditions
Mist
Cloud Levels
  • Few at 200' AGL
Temperature
-23°C / -9°F
Dewpoint
-24°C / -11°F
Humidity
92%
Altimeter
30.08" Hg
Pressure
1018.62 hPa